createdAt,value
2023-04-15T00:02:15.937Z,4.00
2023-04-15T00:04:43.954Z,3.90
2023-04-15T00:07:12.135Z,3.80
2023-04-15T00:09:40.170Z,3.70
2023-04-15T00:12:09.064Z,3.60
2023-04-15T00:14:38.712Z,3.50
2023-04-15T00:17:07.408Z,3.50
2023-04-15T00:19:35.340Z,3.50
2023-04-15T00:22:03.346Z,3.40
2023-04-15T00:24:31.580Z,3.40
2023-04-15T00:26:59.941Z,3.60
2023-04-15T00:29:28.405Z,3.70
2023-04-15T00:31:58.023Z,3.80
2023-04-15T00:34:25.953Z,3.80
2023-04-15T00:36:53.845Z,3.80
2023-04-15T00:39:22.760Z,3.70
2023-04-15T00:41:50.900Z,3.60
2023-04-15T00:44:19.668Z,3.50
2023-04-15T00:46:49.405Z,3.60
2023-04-15T00:49:19.345Z,3.60
2023-04-15T00:51:47.256Z,3.60
2023-04-15T00:54:15.305Z,3.50
2023-04-15T00:56:43.697Z,3.50
2023-04-15T00:59:11.742Z,3.50
2023-04-15T01:01:39.907Z,3.50
2023-04-15T01:04:10.222Z,3.40
2023-04-15T01:06:39.711Z,3.30
2023-04-15T01:09:07.639Z,3.30
2023-04-15T01:11:36.297Z,3.30
2023-04-15T01:14:05.228Z,3.20
2023-04-15T01:16:33.133Z,3.20
2023-04-15T01:19:02.060Z,3.10
2023-04-15T01:21:30.304Z,3.10
2023-04-15T01:24:00.563Z,3.10
2023-04-15T01:26:30.726Z,3.10
2023-04-15T01:28:58.844Z,3.00
2023-04-15T01:31:27.331Z,3.00
2023-04-15T01:33:55.286Z,3.00
2023-04-15T01:36:23.213Z,3.00
2023-04-15T01:38:52.479Z,3.00
2023-04-15T01:41:25.309Z,2.90
2023-04-15T01:43:54.753Z,2.90
2023-04-15T01:46:22.737Z,2.80
2023-04-15T01:48:50.847Z,2.90
2023-04-15T01:51:18.859Z,2.80
2023-04-15T01:53:47.265Z,2.90
2023-04-15T01:56:16.846Z,2.90
2023-04-15T01:58:44.906Z,2.90
2023-04-15T02:01:15.199Z,3.00
2023-04-15T02:03:43.476Z,3.00
2023-04-15T02:06:11.459Z,3.00
2023-04-15T02:08:39.695Z,3.10
2023-04-15T02:11:07.630Z,3.10
2023-04-15T02:13:35.664Z,3.10
2023-04-15T02:16:04.951Z,3.10
2023-04-15T02:18:34.300Z,3.00
2023-04-15T02:21:02.719Z,3.00
2023-04-15T02:23:30.810Z,3.00
2023-04-15T02:25:59.852Z,2.90
2023-04-15T02:28:27.758Z,2.90
2023-04-15T02:30:57.639Z,2.90
2023-04-15T02:33:25.831Z,2.90
2023-04-15T02:35:55.110Z,2.90
2023-04-15T02:38:23.008Z,2.90
2023-04-15T02:40:51.509Z,2.90
2023-04-15T02:43:19.435Z,2.90
2023-04-15T02:45:48.174Z,2.80
2023-04-15T02:48:18.025Z,2.70
2023-04-15T02:50:46.613Z,2.70
2023-04-15T02:53:16.109Z,2.70
2023-04-15T02:55:44.031Z,2.70
2023-04-15T02:58:11.932Z,2.70
2023-04-15T03:00:39.865Z,2.60
2023-04-15T03:03:07.967Z,2.50
2023-04-15T03:05:36.034Z,2.50
2023-04-15T03:08:04.016Z,2.50
2023-04-15T03:10:33.350Z,2.50
2023-04-15T03:13:01.340Z,2.50
2023-04-15T03:15:29.417Z,2.50
2023-04-15T03:17:57.490Z,2.50
2023-04-15T03:20:25.514Z,2.50
2023-04-15T03:22:54.808Z,2.50
2023-04-15T03:25:22.733Z,2.40
2023-04-15T03:27:52.132Z,2.40
2023-04-15T03:30:20.146Z,2.40
2023-04-15T03:32:48.124Z,2.40
2023-04-15T03:35:16.420Z,2.40
2023-04-15T03:37:44.389Z,2.40
2023-04-15T03:40:13.176Z,2.40
2023-04-15T03:42:41.085Z,2.40
2023-04-15T03:45:11.553Z,2.30
2023-04-15T03:47:39.606Z,2.40
2023-04-15T03:50:08.851Z,2.40
2023-04-15T03:52:36.808Z,2.40
2023-04-15T03:55:05.224Z,2.40
2023-04-15T03:57:37.965Z,2.30
2023-04-15T04:00:07.105Z,2.20
2023-04-15T04:02:36.775Z,2.20
2023-04-15T04:05:05.257Z,2.10
2023-04-15T04:07:33.145Z,2.10
2023-04-15T04:10:01.286Z,2.10
2023-04-15T04:12:29.253Z,2.10
2023-04-15T04:14:57.209Z,2.10
2023-04-15T04:17:25.461Z,2.10
2023-04-15T04:19:54.766Z,2.10
2023-04-15T04:22:24.720Z,2.00
2023-04-15T04:24:52.620Z,2.00
2023-04-15T04:27:20.750Z,2.00
2023-04-15T04:29:49.889Z,2.00
2023-04-15T04:32:17.977Z,2.10
2023-04-15T04:34:45.894Z,2.00
2023-04-15T04:37:15.294Z,2.00
2023-04-15T04:39:43.218Z,2.00
2023-04-15T04:42:11.115Z,2.10
2023-04-15T04:44:39.125Z,2.00
2023-04-15T04:47:07.589Z,2.00
2023-04-15T04:49:35.586Z,1.90
2023-04-15T04:52:03.779Z,2.10
2023-04-15T04:54:33.255Z,2.40
2023-04-15T04:57:01.661Z,2.50
2023-04-15T04:59:29.558Z,2.80
2023-04-15T05:01:57.675Z,2.90
2023-04-15T05:04:26.259Z,3.10
2023-04-15T05:06:54.227Z,3.20
2023-04-15T05:09:22.166Z,3.20
2023-04-15T05:11:51.522Z,3.30
2023-04-15T05:14:19.760Z,3.30
2023-04-15T05:16:48.446Z,3.50
2023-04-15T05:19:16.372Z,3.50
2023-04-15T05:21:44.435Z,3.60
2023-04-15T05:24:12.545Z,3.80
2023-04-15T05:26:41.204Z,4.00
2023-04-15T05:29:11.277Z,4.20
2023-04-15T05:31:39.522Z,4.30
2023-04-15T05:34:07.629Z,4.40
2023-04-15T05:36:35.605Z,4.60
2023-04-15T05:39:04.313Z,5.20
2023-04-15T05:41:32.341Z,5.90
2023-04-15T05:44:00.713Z,6.40
2023-04-15T05:46:30.066Z,7.00
2023-04-15T05:48:58.152Z,7.10
2023-04-15T05:51:26.439Z,7.10
2023-04-15T05:53:54.437Z,7.50
2023-04-15T05:56:22.470Z,7.80
2023-04-15T05:58:52.436Z,8.30
2023-04-15T06:01:24.525Z,8.70
2023-04-15T06:03:53.905Z,9.00
2023-04-15T06:06:21.968Z,9.60
2023-04-15T06:08:49.911Z,10.20
2023-04-15T06:11:17.972Z,11.00
2023-04-15T06:13:45.922Z,12.90
2023-04-15T06:16:15.000Z,14.30
2023-04-15T06:18:43.023Z,14.90
2023-04-15T06:21:12.628Z,14.60
2023-04-15T06:23:41.284Z,13.80
2023-04-15T06:26:09.199Z,13.70
2023-04-15T06:28:37.178Z,13.10
2023-04-15T06:31:05.117Z,12.00
2023-04-15T06:33:33.409Z,11.10
2023-04-15T06:36:01.373Z,10.90
2023-04-15T06:38:30.682Z,10.50
2023-04-15T06:40:58.643Z,10.10
2023-04-15T06:43:26.818Z,10.10
2023-04-15T06:45:54.841Z,10.50
2023-04-15T06:48:22.737Z,10.60
2023-04-15T06:50:50.821Z,10.80
2023-04-15T06:53:18.739Z,11.50
2023-04-15T06:55:48.106Z,12.00
2023-04-15T06:58:16.264Z,12.60
2023-04-15T07:00:44.879Z,12.90
2023-04-15T07:03:13.839Z,12.10
2023-04-15T07:05:42.464Z,11.80
2023-04-15T07:08:10.429Z,11.80
2023-04-15T07:10:38.329Z,11.90
2023-04-15T07:13:08.962Z,12.00
2023-04-15T07:15:37.001Z,12.20
2023-04-15T07:18:05.272Z,12.30
2023-04-15T07:20:33.262Z,12.40
2023-04-15T07:23:01.496Z,12.60
2023-04-15T07:25:29.438Z,12.70
2023-04-15T07:27:57.355Z,12.70
2023-04-15T07:30:26.637Z,12.50
2023-04-15T07:32:55.084Z,12.80
2023-04-15T07:35:23.388Z,12.80
2023-04-15T07:37:51.360Z,12.50
2023-04-15T07:40:19.908Z,12.10
2023-04-15T07:42:49.427Z,11.80
2023-04-15T07:45:17.543Z,11.50
2023-04-15T07:47:46.982Z,11.00
2023-04-15T07:50:16.305Z,11.00
2023-04-15T07:52:44.430Z,11.20
2023-04-15T07:55:12.401Z,11.20
2023-04-15T07:57:40.303Z,11.30
2023-04-15T08:00:10.196Z,11.50
2023-04-15T08:02:40.300Z,11.50
2023-04-15T08:05:10.959Z,11.70
2023-04-15T08:07:39.482Z,11.80
2023-04-15T08:10:08.366Z,11.70
2023-04-15T08:12:36.356Z,11.60
2023-04-15T08:15:04.422Z,11.50
2023-04-15T08:17:32.443Z,11.60
2023-04-15T08:20:00.433Z,11.80
2023-04-15T08:22:29.719Z,11.50
2023-04-15T08:24:57.893Z,11.40
2023-04-15T08:27:26.033Z,11.40
2023-04-15T08:29:54.027Z,11.10
2023-04-15T08:32:22.604Z,11.20
2023-04-15T08:34:50.825Z,11.30
2023-04-15T08:37:18.777Z,11.10
2023-04-15T08:39:48.594Z,11.10
2023-04-15T08:42:20.371Z,11.10
2023-04-15T08:44:49.424Z,11.20
2023-04-15T08:47:22.756Z,11.30
2023-04-15T08:49:53.957Z,11.20
2023-04-15T08:52:22.615Z,11.30
2023-04-15T08:54:52.380Z,11.50
2023-04-15T08:57:20.695Z,11.70
2023-04-15T08:59:49.552Z,11.90
2023-04-15T09:02:17.872Z,12.20
2023-04-15T09:04:45.922Z,12.50
2023-04-15T09:07:13.914Z,12.80
2023-04-15T09:09:42.261Z,13.00
2023-04-15T09:12:13.584Z,13.10
2023-04-15T09:14:42.201Z,13.50
2023-04-15T09:17:11.784Z,13.50
2023-04-15T09:19:39.706Z,13.40
2023-04-15T09:22:07.932Z,13.60
2023-04-15T09:24:39.250Z,13.50
2023-04-15T09:27:07.953Z,13.30
2023-04-15T09:29:37.505Z,12.90
2023-04-15T09:32:12.673Z,13.20
2023-04-15T09:34:40.667Z,13.30
2023-04-15T09:37:10.896Z,13.30
2023-04-15T09:39:50.195Z,13.60
2023-04-15T09:42:24.146Z,13.50
2023-04-15T09:44:53.792Z,13.20
2023-04-15T09:47:31.558Z,13.20
2023-04-15T09:50:00.436Z,13.30
2023-04-15T09:52:28.956Z,13.20
2023-04-15T09:54:59.248Z,13.50
2023-04-15T09:57:34.574Z,13.70
2023-04-15T10:00:05.284Z,13.70
2023-04-15T10:02:33.662Z,13.80
2023-04-15T10:05:03.033Z,13.60
2023-04-15T10:07:31.105Z,13.80
2023-04-15T10:10:02.079Z,13.80
2023-04-15T10:12:30.605Z,13.70
2023-04-15T10:15:01.914Z,13.70
2023-04-15T10:17:35.273Z,13.80
2023-04-15T10:20:04.695Z,13.80
2023-04-15T10:22:33.837Z,13.90
2023-04-15T10:25:04.273Z,13.90
2023-04-15T10:27:32.876Z,14.20
2023-04-15T10:30:03.040Z,14.30
2023-04-15T10:32:32.789Z,14.20
2023-04-15T10:35:01.092Z,14.10
2023-04-15T10:37:36.086Z,14.00
2023-04-15T10:40:26.116Z,13.90
2023-04-15T10:42:55.329Z,13.30
2023-04-15T10:45:27.295Z,13.30
2023-04-15T10:47:59.999Z,13.20
2023-04-15T10:50:33.161Z,13.20
2023-04-15T10:53:06.162Z,13.40
2023-04-15T10:55:35.355Z,13.30
2023-04-15T10:58:03.974Z,13.20
2023-04-15T11:00:33.174Z,13.20
2023-04-15T11:03:08.864Z,13.30
2023-04-15T11:06:01.731Z,13.40
2023-04-15T11:08:58.572Z,13.50
2023-04-15T11:12:00.459Z,13.60
2023-04-15T11:14:28.698Z,13.30
2023-04-15T11:16:56.681Z,13.10
2023-04-15T11:19:26.021Z,13.00
2023-04-15T11:21:53.979Z,13.30
2023-04-15T11:24:27.432Z,13.80
2023-04-15T11:26:59.864Z,13.90
2023-04-15T11:29:31.376Z,13.70
2023-04-15T11:32:10.357Z,13.70
2023-04-15T11:34:39.903Z,13.70
2023-04-15T11:37:08.344Z,13.70
2023-04-15T11:39:38.356Z,13.70
2023-04-15T11:42:18.102Z,13.90
2023-04-15T11:44:46.008Z,14.00
2023-04-15T11:47:24.147Z,14.20
2023-04-15T11:49:53.420Z,14.20
2023-04-15T11:52:21.505Z,13.90
2023-04-15T11:54:51.060Z,13.80
2023-04-15T11:57:19.240Z,13.60
2023-04-15T11:59:47.144Z,13.90
2023-04-15T12:02:15.475Z,14.00
2023-04-15T12:04:43.750Z,14.10
2023-04-15T12:07:13.209Z,14.00
2023-04-15T12:09:41.404Z,13.80
2023-04-15T12:12:12.064Z,13.40
2023-04-15T12:14:42.349Z,13.10
2023-04-15T12:17:13.212Z,13.00
2023-04-15T12:19:43.208Z,13.30
2023-04-15T12:22:14.159Z,13.50
2023-04-15T12:24:46.981Z,13.50
2023-04-15T12:27:16.282Z,13.60
2023-04-15T12:29:44.537Z,14.00
2023-04-15T12:32:13.995Z,14.10
2023-04-15T12:34:43.482Z,13.80
2023-04-15T12:37:14.439Z,13.60
2023-04-15T12:39:44.117Z,13.20
2023-04-15T12:42:13.071Z,12.80
2023-04-15T12:44:41.566Z,12.40
2023-04-15T12:47:10.725Z,12.00
2023-04-15T12:49:39.381Z,10.60
2023-04-15T12:52:07.700Z,9.70
2023-04-15T12:54:37.199Z,9.40
2023-04-15T12:57:07.315Z,9.40
2023-04-15T12:59:35.600Z,9.60
2023-04-15T13:02:05.543Z,9.70
2023-04-15T13:04:33.828Z,10.10
2023-04-15T13:07:03.028Z,10.50
2023-04-15T13:09:31.086Z,10.80
2023-04-15T13:12:00.526Z,11.00
2023-04-15T13:14:28.516Z,11.20
2023-04-15T13:16:58.100Z,11.10
2023-04-15T13:19:26.686Z,10.80
2023-04-15T13:21:54.683Z,10.10
2023-04-15T13:24:22.677Z,9.80
2023-04-15T13:26:50.642Z,9.50
2023-04-15T13:29:20.132Z,9.50
2023-04-15T13:31:48.243Z,9.50
2023-04-15T13:34:16.447Z,9.50
2023-04-15T13:36:44.393Z,9.60
2023-04-15T13:39:12.405Z,9.60
2023-04-15T13:41:41.387Z,9.50
2023-04-15T13:44:09.304Z,9.80
2023-04-15T13:46:39.598Z,10.00
2023-04-15T13:49:07.509Z,9.90
2023-04-15T13:51:36.353Z,10.00
2023-04-15T13:54:04.406Z,10.20
2023-04-15T13:56:32.435Z,10.20
2023-04-15T13:59:02.340Z,10.30
2023-04-15T14:01:30.579Z,10.60
2023-04-15T14:04:00.176Z,10.80
2023-04-15T14:06:28.454Z,11.00
2023-04-15T14:08:56.515Z,11.10
2023-04-15T14:11:24.555Z,11.20
2023-04-15T14:13:52.535Z,11.10
2023-04-15T14:16:20.578Z,11.40
2023-04-15T14:18:48.608Z,11.30
2023-04-15T14:21:18.043Z,11.40
2023-04-15T14:23:46.061Z,11.60
2023-04-15T14:26:14.681Z,11.50
2023-04-15T14:28:45.081Z,11.30
2023-04-15T14:31:13.411Z,11.10
2023-04-15T14:33:41.362Z,10.90
2023-04-15T14:36:10.021Z,10.80
2023-04-15T14:38:40.066Z,10.80
2023-04-15T14:41:08.568Z,10.80
2023-04-15T14:43:36.746Z,10.90
2023-04-15T14:46:04.918Z,10.90
2023-04-15T14:48:33.193Z,10.90
2023-04-15T14:51:01.208Z,10.90
2023-04-15T14:53:29.221Z,10.90
2023-04-15T14:55:58.523Z,10.90
2023-04-15T14:58:26.595Z,10.90
2023-04-15T15:00:54.580Z,11.00
2023-04-15T15:03:22.680Z,11.00
2023-04-15T15:05:50.908Z,11.00
2023-04-15T15:08:18.991Z,10.90
2023-04-15T15:10:48.722Z,10.80
2023-04-15T15:13:19.880Z,10.70
2023-04-15T15:15:49.417Z,10.70
2023-04-15T15:18:19.317Z,10.70
2023-04-15T15:20:47.789Z,10.60
2023-04-15T15:23:15.871Z,10.70
2023-04-15T15:25:43.955Z,10.50
2023-04-15T15:28:11.977Z,10.40
2023-04-15T15:30:41.273Z,10.30
2023-04-15T15:33:09.282Z,10.20
2023-04-15T15:35:37.302Z,10.20
2023-04-15T15:38:05.396Z,10.10
2023-04-15T15:40:33.404Z,9.90
2023-04-15T15:43:01.424Z,9.80
2023-04-15T15:45:29.549Z,9.70
2023-04-15T15:48:00.117Z,9.60
2023-04-15T15:50:28.492Z,9.40
2023-04-15T15:52:58.542Z,9.40
2023-04-15T15:55:27.241Z,9.30
2023-04-15T15:57:55.303Z,9.20
2023-04-15T16:00:23.820Z,9.20
2023-04-15T16:05:24.154Z,9.10
2023-04-15T16:07:52.237Z,9.00
2023-04-15T16:10:20.227Z,9.00
2023-04-15T16:12:48.255Z,8.90
2023-04-15T16:15:16.480Z,9.00
2023-04-15T16:17:44.893Z,9.00
2023-04-15T16:20:12.874Z,8.90
2023-04-15T16:22:42.326Z,8.90
2023-04-15T16:25:10.789Z,8.90
2023-04-15T16:27:57.295Z,8.90
2023-04-15T16:30:28.951Z,8.80
2023-04-15T16:32:57.683Z,8.70
2023-04-15T16:35:25.844Z,8.50
2023-04-15T16:37:57.691Z,8.40
2023-04-15T16:40:26.341Z,8.40
2023-04-15T16:42:56.336Z,8.40
2023-04-15T16:45:24.338Z,8.30
2023-04-15T16:47:52.386Z,8.20
2023-04-15T16:50:20.470Z,8.20
2023-04-15T16:52:48.423Z,8.10
2023-04-15T16:55:17.781Z,8.10
2023-04-15T16:58:01.172Z,8.00
2023-04-15T17:00:32.137Z,8.00
2023-04-15T17:03:00.372Z,8.00
2023-04-15T17:05:29.238Z,8.00
2023-04-15T17:07:57.263Z,7.90
2023-04-15T17:10:26.713Z,7.80
2023-04-15T17:12:56.742Z,7.70
2023-04-15T17:15:25.068Z,7.70
2023-04-15T17:17:54.033Z,7.60
2023-04-15T17:20:22.221Z,7.50
2023-04-15T17:22:50.411Z,7.50
2023-04-15T17:25:19.444Z,7.50
2023-04-15T17:27:48.769Z,7.40
2023-04-15T17:30:16.744Z,7.40
2023-04-15T17:32:44.834Z,7.40
2023-04-15T17:35:12.969Z,7.30
2023-04-15T17:37:41.093Z,7.30
2023-04-15T17:40:10.045Z,7.30
2023-04-15T17:42:37.946Z,7.20
2023-04-15T17:45:08.542Z,7.10
2023-04-15T17:47:36.701Z,7.10
2023-04-15T17:50:05.225Z,7.00
2023-04-15T17:52:33.166Z,7.00
2023-04-15T17:55:01.135Z,6.90
2023-04-15T17:57:29.326Z,6.90
2023-04-15T17:59:57.417Z,6.80
2023-04-15T18:02:26.950Z,6.80
2023-04-15T18:04:55.307Z,6.80
2023-04-15T18:07:23.370Z,6.80
2023-04-15T18:09:51.625Z,6.80
2023-04-15T18:12:19.597Z,6.80
2023-04-15T18:14:47.711Z,6.80
2023-04-15T18:17:15.776Z,6.80
2023-04-15T18:19:45.871Z,6.80
2023-04-15T18:22:13.916Z,6.80
2023-04-15T18:24:41.971Z,6.70
2023-04-15T18:27:09.984Z,6.80
2023-04-15T18:29:38.446Z,6.80
2023-04-15T18:32:06.671Z,6.80
2023-04-15T18:34:34.726Z,6.80
2023-04-15T18:37:05.280Z,6.80
2023-04-15T18:39:33.446Z,6.80
2023-04-15T18:42:01.924Z,6.80
2023-04-15T18:44:30.401Z,6.80
2023-04-15T18:46:58.402Z,6.70
2023-04-15T18:49:27.385Z,6.80
2023-04-15T18:51:55.616Z,6.80
2023-04-15T18:54:25.098Z,6.80
2023-04-15T18:56:53.435Z,6.70
2023-04-15T18:59:29.372Z,6.80
2023-04-15T19:01:59.132Z,6.80
2023-04-15T19:04:28.808Z,6.90
2023-04-15T19:06:57.283Z,6.90
2023-04-15T19:09:26.674Z,6.70
2023-04-15T19:11:54.648Z,6.60
2023-04-15T19:14:23.034Z,6.60
2023-04-15T19:16:51.225Z,6.60
2023-04-15T19:19:19.744Z,6.60
2023-04-15T19:21:50.002Z,6.60
2023-04-15T19:24:18.902Z,6.60
2023-04-15T19:26:50.019Z,6.50
2023-04-15T19:29:18.354Z,6.50
2023-04-15T19:31:46.429Z,6.60
2023-04-15T19:34:14.587Z,6.60
2023-04-15T19:36:43.059Z,6.60
2023-04-15T19:39:11.407Z,6.50
2023-04-15T19:41:39.665Z,6.50
2023-04-15T19:44:09.050Z,6.50
2023-04-15T19:46:37.267Z,6.50
2023-04-15T19:49:05.668Z,6.50
2023-04-15T19:51:33.919Z,6.50
2023-04-15T19:54:01.927Z,6.40
2023-04-15T19:56:31.728Z,6.50
2023-04-15T19:59:02.168Z,6.50
2023-04-15T20:01:31.917Z,6.50
2023-04-15T20:04:00.266Z,6.50
2023-04-15T20:06:28.504Z,6.40
2023-04-15T20:08:56.442Z,6.40
2023-04-15T20:12:09.283Z,6.40
2023-04-15T20:14:17.560Z,6.40
2023-04-15T20:16:47.681Z,6.40
2023-04-15T20:19:15.850Z,6.30
2023-04-15T20:21:43.833Z,6.30
2023-04-15T20:24:11.837Z,6.20
2023-04-15T20:26:39.822Z,6.20
2023-04-15T20:29:08.322Z,6.20
2023-04-15T20:31:36.546Z,6.20
2023-04-15T20:34:05.973Z,6.20
2023-04-15T20:36:34.351Z,6.10
2023-04-15T20:39:02.396Z,6.10
2023-04-15T20:41:30.436Z,6.10
2023-04-15T20:43:58.421Z,6.10
2023-04-15T20:46:27.746Z,6.10
2023-04-15T20:48:56.634Z,6.10
2023-04-15T20:51:27.429Z,6.10
2023-04-15T20:53:55.584Z,6.10
2023-04-15T20:56:23.620Z,6.10
2023-04-15T20:58:51.927Z,6.10
2023-04-15T21:01:20.044Z,6.10
2023-04-15T21:03:48.416Z,6.20
2023-04-15T21:06:18.880Z,6.20
2023-04-15T21:08:48.242Z,6.20
2023-04-15T21:11:25.706Z,6.20
2023-04-15T21:14:04.232Z,6.30
2023-04-15T21:16:33.889Z,6.30
2023-04-15T21:19:01.970Z,6.20
2023-04-15T21:21:29.905Z,6.20
2023-04-15T21:24:00.353Z,6.20
2023-04-15T21:26:28.427Z,6.20
2023-04-15T21:28:56.384Z,6.20
2023-04-15T21:31:24.597Z,6.30
2023-04-15T21:33:52.630Z,6.30
2023-04-15T21:36:20.662Z,6.30
2023-04-15T21:38:48.685Z,6.30
2023-04-15T21:41:18.066Z,6.30
2023-04-15T21:43:46.049Z,6.30
2023-04-15T21:46:22.248Z,6.20
2023-04-15T21:48:54.098Z,6.20
2023-04-15T21:51:22.463Z,6.20
2023-04-15T21:53:50.445Z,6.20
2023-04-15T21:56:21.529Z,6.20
2023-04-15T21:58:49.470Z,6.30
2023-04-15T22:01:17.498Z,6.30
2023-04-15T22:03:45.629Z,6.30
2023-04-15T22:06:13.839Z,6.20
2023-04-15T22:08:54.968Z,6.20
2023-04-15T22:11:28.213Z,6.30
2023-04-15T22:13:57.240Z,6.30
2023-04-15T22:16:26.302Z,6.30
2023-04-15T22:18:54.629Z,6.40
2023-04-15T22:21:22.644Z,6.30
2023-04-15T22:23:50.770Z,6.30
2023-04-15T22:26:18.862Z,6.30
2023-04-15T22:28:48.231Z,6.30
2023-04-15T22:31:16.444Z,6.30
2023-04-15T22:33:44.397Z,6.20
2023-04-15T22:36:13.522Z,6.30
2023-04-15T22:38:41.495Z,6.30
2023-04-15T22:41:10.174Z,6.30
2023-04-15T22:43:38.300Z,6.30
2023-04-15T22:46:07.847Z,6.30
2023-04-15T22:48:36.063Z,6.30
2023-04-15T22:51:06.160Z,6.30
2023-04-15T22:53:34.268Z,6.30
2023-04-15T22:56:02.372Z,6.30
2023-04-15T22:58:32.108Z,6.20
2023-04-15T23:01:00.572Z,6.20
2023-04-15T23:03:30.006Z,6.30
2023-04-15T23:05:58.135Z,6.30
2023-04-15T23:08:26.086Z,6.40
2023-04-15T23:10:54.018Z,6.30
2023-04-15T23:13:22.016Z,6.30
2023-04-15T23:15:50.042Z,6.30
2023-04-15T23:18:18.082Z,6.30
2023-04-15T23:20:47.826Z,6.40
2023-04-15T23:23:16.458Z,6.40
2023-04-15T23:25:44.457Z,6.40
2023-04-15T23:28:12.513Z,6.30
2023-04-15T23:30:40.573Z,6.30
2023-04-15T23:33:08.544Z,6.30
2023-04-15T23:35:37.824Z,6.30
2023-04-15T23:38:07.110Z,6.30
2023-04-15T23:40:35.510Z,6.30
2023-04-15T23:43:03.489Z,6.30
2023-04-15T23:45:34.754Z,6.20
2023-04-15T23:48:02.766Z,6.30
2023-04-15T23:50:30.724Z,6.30
2023-04-15T23:52:58.676Z,6.30
2023-04-15T23:55:28.019Z,6.30
2023-04-15T23:57:56.124Z,6.30
